sensor_id;sensor_type;location;lat;lon;timestamp;P1;durP1;ratioP1;P2;durP2;ratioP2
43646;SDS011;56152;49.996;18.980;2022-10-16T00:02:16;20.40;;;16.42;;
43646;SDS011;56152;49.996;18.980;2022-10-16T00:07:22;21.15;;;15.50;;
43646;SDS011;56152;49.996;18.980;2022-10-16T00:12:23;17.98;;;12.65;;
43646;SDS011;56152;49.996;18.980;2022-10-16T00:17:26;16.15;;;11.88;;
43646;SDS011;56152;49.996;18.980;2022-10-16T00:22:32;17.40;;;11.05;;
43646;SDS011;56152;49.996;18.980;2022-10-16T00:27:34;21.40;;;12.50;;
43646;SDS011;56152;49.996;18.980;2022-10-16T00:32:39;18.58;;;12.68;;
43646;SDS011;56152;49.996;18.980;2022-10-16T00:37:43;15.63;;;11.68;;
43646;SDS011;56152;49.996;18.980;2022-10-16T00:42:46;15.20;;;12.00;;
43646;SDS011;56152;49.996;18.980;2022-10-16T00:47:49;16.23;;;10.90;;
43646;SDS011;56152;49.996;18.980;2022-10-16T00:53:04;22.92;;;13.35;;
43646;SDS011;56152;49.996;18.980;2022-10-16T00:58:07;16.33;;;12.00;;
43646;SDS011;56152;49.996;18.980;2022-10-16T01:03:22;23.30;;;15.60;;
43646;SDS011;56152;49.996;18.980;2022-10-16T01:08:28;17.55;;;12.68;;
43646;SDS011;56152;49.996;18.980;2022-10-16T01:13:41;24.42;;;15.65;;
43646;SDS011;56152;49.996;18.980;2022-10-16T01:18:49;32.10;;;21.05;;
43646;SDS011;56152;49.996;18.980;2022-10-16T01:23:59;26.92;;;17.85;;
43646;SDS011;56152;49.996;18.980;2022-10-16T01:29:12;36.20;;;25.77;;
43646;SDS011;56152;49.996;18.980;2022-10-16T01:34:18;25.80;;;17.60;;
43646;SDS011;56152;49.996;18.980;2022-10-16T01:39:24;27.20;;;18.45;;
43646;SDS011;56152;49.996;18.980;2022-10-16T01:44:33;31.02;;;20.48;;
43646;SDS011;56152;49.996;18.980;2022-10-16T01:49:37;33.00;;;21.73;;
43646;SDS011;56152;49.996;18.980;2022-10-16T01:54:44;22.73;;;15.30;;
43646;SDS011;56152;49.996;18.980;2022-10-16T01:59:52;22.48;;;15.60;;
43646;SDS011;56152;49.996;18.980;2022-10-16T02:05:04;20.92;;;15.88;;
43646;SDS011;56152;49.996;18.980;2022-10-16T02:10:18;18.20;;;13.77;;
43646;SDS011;56152;49.996;18.980;2022-10-16T02:15:24;21.73;;;14.98;;
43646;SDS011;56152;49.996;18.980;2022-10-16T02:20:27;25.23;;;14.82;;
43646;SDS011;56152;49.996;18.980;2022-10-16T02:25:36;24.67;;;15.52;;
43646;SDS011;56152;49.996;18.980;2022-10-16T02:30:45;37.60;;;22.25;;
43646;SDS011;56152;49.996;18.980;2022-10-16T02:35:50;32.65;;;20.83;;
43646;SDS011;56152;49.996;18.980;2022-10-16T02:41:03;35.17;;;22.08;;
43646;SDS011;56152;49.996;18.980;2022-10-16T02:46:07;36.05;;;24.98;;
43646;SDS011;56152;49.996;18.980;2022-10-16T02:56:21;29.58;;;20.95;;
43646;SDS011;56152;49.996;18.980;2022-10-16T03:01:29;33.78;;;21.85;;
43646;SDS011;56152;49.996;18.980;2022-10-16T03:06:31;30.17;;;22.95;;
43646;SDS011;56152;49.996;18.980;2022-10-16T03:11:46;34.38;;;23.85;;
43646;SDS011;56152;49.996;18.980;2022-10-16T03:16:58;32.67;;;20.58;;
43646;SDS011;56152;49.996;18.980;2022-10-16T03:22:00;37.05;;;19.13;;
43646;SDS011;56152;49.996;18.980;2022-10-16T03:27:08;21.98;;;16.38;;
43646;SDS011;56152;49.996;18.980;2022-10-16T03:32:12;23.13;;;16.98;;
43646;SDS011;56152;49.996;18.980;2022-10-16T03:42:23;35.38;;;23.08;;
43646;SDS011;56152;49.996;18.980;2022-10-16T03:47:31;26.73;;;19.40;;
43646;SDS011;56152;49.996;18.980;2022-10-16T03:52:33;35.17;;;21.88;;
43646;SDS011;56152;49.996;18.980;2022-10-16T03:57:36;25.33;;;18.73;;
43646;SDS011;56152;49.996;18.980;2022-10-16T04:02:42;26.30;;;19.17;;
43646;SDS011;56152;49.996;18.980;2022-10-16T04:07:44;32.95;;;22.77;;
43646;SDS011;56152;49.996;18.980;2022-10-16T04:13:03;26.52;;;19.77;;
43646;SDS011;56152;49.996;18.980;2022-10-16T04:18:10;29.33;;;19.85;;
43646;SDS011;56152;49.996;18.980;2022-10-16T04:23:12;26.70;;;17.90;;
43646;SDS011;56152;49.996;18.980;2022-10-16T04:28:16;28.83;;;20.58;;
43646;SDS011;56152;49.996;18.980;2022-10-16T04:33:19;54.53;;;37.47;;
43646;SDS011;56152;49.996;18.980;2022-10-16T04:38:39;32.10;;;22.00;;
43646;SDS011;56152;49.996;18.980;2022-10-16T04:43:41;22.65;;;17.77;;
43646;SDS011;56152;49.996;18.980;2022-10-16T04:48:45;28.75;;;19.45;;
43646;SDS011;56152;49.996;18.980;2022-10-16T04:53:47;22.58;;;17.05;;
43646;SDS011;56152;49.996;18.980;2022-10-16T04:58:51;41.92;;;26.27;;
43646;SDS011;56152;49.996;18.980;2022-10-16T05:04:16;43.38;;;25.98;;
43646;SDS011;56152;49.996;18.980;2022-10-16T05:09:20;37.72;;;24.70;;
43646;SDS011;56152;49.996;18.980;2022-10-16T05:14:23;57.80;;;34.78;;
43646;SDS011;56152;49.996;18.980;2022-10-16T05:19:43;59.63;;;34.33;;
43646;SDS011;56152;49.996;18.980;2022-10-16T05:24:46;69.47;;;45.28;;
43646;SDS011;56152;49.996;18.980;2022-10-16T05:29:49;105.05;;;59.58;;
43646;SDS011;56152;49.996;18.980;2022-10-16T05:34:54;65.10;;;38.63;;
43646;SDS011;56152;49.996;18.980;2022-10-16T05:40:01;46.08;;;28.77;;
43646;SDS011;56152;49.996;18.980;2022-10-16T05:45:04;57.30;;;38.42;;
43646;SDS011;56152;49.996;18.980;2022-10-16T05:50:10;38.80;;;24.88;;
43646;SDS011;56152;49.996;18.980;2022-10-16T05:55:13;57.15;;;37.95;;
43646;SDS011;56152;49.996;18.980;2022-10-16T06:00:18;53.75;;;33.53;;
43646;SDS011;56152;49.996;18.980;2022-10-16T06:05:25;46.50;;;30.00;;
43646;SDS011;56152;49.996;18.980;2022-10-16T06:10:28;46.38;;;30.15;;
43646;SDS011;56152;49.996;18.980;2022-10-16T06:15:30;48.13;;;30.20;;
43646;SDS011;56152;49.996;18.980;2022-10-16T06:20:53;45.70;;;28.83;;
43646;SDS011;56152;49.996;18.980;2022-10-16T06:26:03;39.30;;;28.77;;
43646;SDS011;56152;49.996;18.980;2022-10-16T06:31:15;42.92;;;33.90;;
43646;SDS011;56152;49.996;18.980;2022-10-16T06:36:22;38.30;;;27.85;;
43646;SDS011;56152;49.996;18.980;2022-10-16T06:41:24;34.65;;;24.35;;
43646;SDS011;56152;49.996;18.980;2022-10-16T06:46:27;27.40;;;20.17;;
43646;SDS011;56152;49.996;18.980;2022-10-16T06:51:45;23.10;;;18.00;;
43646;SDS011;56152;49.996;18.980;2022-10-16T06:56:53;20.02;;;14.93;;
43646;SDS011;56152;49.996;18.980;2022-10-16T07:01:55;24.30;;;15.05;;
43646;SDS011;56152;49.996;18.980;2022-10-16T07:07:01;20.55;;;12.40;;
43646;SDS011;56152;49.996;18.980;2022-10-16T07:12:04;17.38;;;10.48;;
43646;SDS011;56152;49.996;18.980;2022-10-16T07:17:09;13.40;;;8.25;;
43646;SDS011;56152;49.996;18.980;2022-10-16T07:22:12;13.38;;;7.93;;
43646;SDS011;56152;49.996;18.980;2022-10-16T07:27:14;6.72;;;5.80;;
43646;SDS011;56152;49.996;18.980;2022-10-16T07:32:16;13.18;;;7.43;;
43646;SDS011;56152;49.996;18.980;2022-10-16T07:37:19;12.05;;;7.13;;
43646;SDS011;56152;49.996;18.980;2022-10-16T07:42:22;12.35;;;6.90;;
43646;SDS011;56152;49.996;18.980;2022-10-16T07:47:24;8.38;;;5.70;;
43646;SDS011;56152;49.996;18.980;2022-10-16T07:52:28;9.30;;;5.95;;
43646;SDS011;56152;49.996;18.980;2022-10-16T07:57:32;7.10;;;6.22;;
43646;SDS011;56152;49.996;18.980;2022-10-16T08:02:34;6.63;;;5.05;;
43646;SDS011;56152;49.996;18.980;2022-10-16T08:07:38;6.57;;;5.50;;
43646;SDS011;56152;49.996;18.980;2022-10-16T08:12:44;6.43;;;5.07;;
43646;SDS011;56152;49.996;18.980;2022-10-16T08:17:53;12.18;;;7.13;;
43646;SDS011;56152;49.996;18.980;2022-10-16T08:23:07;7.63;;;5.45;;
43646;SDS011;56152;49.996;18.980;2022-10-16T08:28:11;9.23;;;6.55;;
43646;SDS011;56152;49.996;18.980;2022-10-16T08:33:15;5.82;;;4.60;;
43646;SDS011;56152;49.996;18.980;2022-10-16T08:38:31;8.77;;;6.22;;
43646;SDS011;56152;49.996;18.980;2022-10-16T08:43:37;6.47;;;5.20;;
43646;SDS011;56152;49.996;18.980;2022-10-16T08:48:54;7.15;;;5.70;;
43646;SDS011;56152;49.996;18.980;2022-10-16T08:54:01;9.43;;;6.45;;
43646;SDS011;56152;49.996;18.980;2022-10-16T08:59:06;8.70;;;5.70;;
43646;SDS011;56152;49.996;18.980;2022-10-16T09:04:20;10.30;;;5.38;;
43646;SDS011;56152;49.996;18.980;2022-10-16T09:10:00;6.63;;;5.32;;
43646;SDS011;56152;49.996;18.980;2022-10-16T09:15:14;11.93;;;6.00;;
43646;SDS011;56152;49.996;18.980;2022-10-16T09:20:32;7.82;;;5.28;;
43646;SDS011;56152;49.996;18.980;2022-10-16T09:25:48;6.57;;;4.82;;
43646;SDS011;56152;49.996;18.980;2022-10-16T09:30:51;6.50;;;5.03;;
43646;SDS011;56152;49.996;18.980;2022-10-16T09:35:54;6.15;;;5.10;;
43646;SDS011;56152;49.996;18.980;2022-10-16T09:41:02;6.22;;;4.82;;
43646;SDS011;56152;49.996;18.980;2022-10-16T09:46:21;10.10;;;6.57;;
43646;SDS011;56152;49.996;18.980;2022-10-16T09:51:27;8.25;;;5.80;;
43646;SDS011;56152;49.996;18.980;2022-10-16T09:56:32;6.93;;;5.47;;
43646;SDS011;56152;49.996;18.980;2022-10-16T10:01:37;7.72;;;5.72;;
43646;SDS011;56152;49.996;18.980;2022-10-16T10:06:43;9.18;;;5.22;;
43646;SDS011;56152;49.996;18.980;2022-10-16T10:11:52;12.23;;;5.55;;
43646;SDS011;56152;49.996;18.980;2022-10-16T10:22:15;5.55;;;4.57;;
43646;SDS011;56152;49.996;18.980;2022-10-16T10:27:42;7.55;;;5.93;;
43646;SDS011;56152;49.996;18.980;2022-10-16T10:32:56;8.48;;;5.38;;
43646;SDS011;56152;49.996;18.980;2022-10-16T10:38:18;4.78;;;4.22;;
43646;SDS011;56152;49.996;18.980;2022-10-16T10:43:33;8.00;;;6.10;;
43646;SDS011;56152;49.996;18.980;2022-10-16T10:48:50;8.55;;;5.28;;
43646;SDS011;56152;49.996;18.980;2022-10-16T10:54:05;10.63;;;6.57;;
43646;SDS011;56152;49.996;18.980;2022-10-16T11:10:33;9.38;;;5.32;;
43646;SDS011;56152;49.996;18.980;2022-10-16T11:15:43;8.52;;;5.93;;
43646;SDS011;56152;49.996;18.980;2022-10-16T11:20:49;7.70;;;5.40;;
43646;SDS011;56152;49.996;18.980;2022-10-16T11:25:53;7.28;;;5.40;;
43646;SDS011;56152;49.996;18.980;2022-10-16T11:31:02;7.70;;;6.00;;
43646;SDS011;56152;49.996;18.980;2022-10-16T11:36:11;11.77;;;5.82;;
43646;SDS011;56152;49.996;18.980;2022-10-16T11:41:21;9.10;;;6.53;;
43646;SDS011;56152;49.996;18.980;2022-10-16T11:46:29;6.88;;;5.63;;
43646;SDS011;56152;49.996;18.980;2022-10-16T11:51:35;9.18;;;4.63;;
43646;SDS011;56152;49.996;18.980;2022-10-16T11:56:43;11.63;;;6.25;;
43646;SDS011;56152;49.996;18.980;2022-10-16T12:01:53;7.07;;;5.88;;
43646;SDS011;56152;49.996;18.980;2022-10-16T12:07:06;12.35;;;6.40;;
43646;SDS011;56152;49.996;18.980;2022-10-16T12:12:23;12.35;;;6.05;;
43646;SDS011;56152;49.996;18.980;2022-10-16T12:17:33;11.15;;;6.47;;
43646;SDS011;56152;49.996;18.980;2022-10-16T12:22:40;10.68;;;6.40;;
43646;SDS011;56152;49.996;18.980;2022-10-16T12:27:54;11.20;;;5.63;;
43646;SDS011;56152;49.996;18.980;2022-10-16T12:33:16;8.50;;;6.47;;
43646;SDS011;56152;49.996;18.980;2022-10-16T12:38:26;5.78;;;5.10;;
43646;SDS011;56152;49.996;18.980;2022-10-16T12:43:40;7.32;;;5.47;;
43646;SDS011;56152;49.996;18.980;2022-10-16T12:48:45;7.88;;;5.97;;
43646;SDS011;56152;49.996;18.980;2022-10-16T12:59:21;10.38;;;6.35;;
43646;SDS011;56152;49.996;18.980;2022-10-16T13:04:47;9.40;;;5.50;;
43646;SDS011;56152;49.996;18.980;2022-10-16T13:10:07;7.47;;;6.05;;
43646;SDS011;56152;49.996;18.980;2022-10-16T13:15:19;11.32;;;5.82;;
43646;SDS011;56152;49.996;18.980;2022-10-16T13:20:42;7.95;;;5.05;;
43646;SDS011;56152;49.996;18.980;2022-10-16T13:26:11;7.93;;;5.20;;
43646;SDS011;56152;49.996;18.980;2022-10-16T13:31:21;9.05;;;6.22;;
43646;SDS011;56152;49.996;18.980;2022-10-16T13:36:28;8.63;;;5.80;;
43646;SDS011;56152;49.996;18.980;2022-10-16T13:41:33;6.78;;;5.47;;
43646;SDS011;56152;49.996;18.980;2022-10-16T13:46:35;8.32;;;6.03;;
43646;SDS011;56152;49.996;18.980;2022-10-16T13:51:39;7.82;;;6.30;;
43646;SDS011;56152;49.996;18.980;2022-10-16T13:56:42;8.50;;;7.57;;
43646;SDS011;56152;49.996;18.980;2022-10-16T14:01:44;9.55;;;7.95;;
43646;SDS011;56152;49.996;18.980;2022-10-16T14:06:49;11.38;;;7.85;;
43646;SDS011;56152;49.996;18.980;2022-10-16T14:11:53;13.13;;;7.30;;
43646;SDS011;56152;49.996;18.980;2022-10-16T14:16:59;8.60;;;6.03;;
43646;SDS011;56152;49.996;18.980;2022-10-16T14:22:02;8.73;;;6.53;;
43646;SDS011;56152;49.996;18.980;2022-10-16T14:27:29;8.75;;;6.10;;
43646;SDS011;56152;49.996;18.980;2022-10-16T14:32:32;11.43;;;7.30;;
43646;SDS011;56152;49.996;18.980;2022-10-16T14:37:37;6.97;;;6.28;;
43646;SDS011;56152;49.996;18.980;2022-10-16T14:42:40;11.48;;;7.50;;
43646;SDS011;56152;49.996;18.980;2022-10-16T14:47:49;7.95;;;7.03;;
43646;SDS011;56152;49.996;18.980;2022-10-16T14:52:57;9.98;;;6.18;;
43646;SDS011;56152;49.996;18.980;2022-10-16T14:58:00;10.77;;;6.18;;
43646;SDS011;56152;49.996;18.980;2022-10-16T15:03:02;9.73;;;6.85;;
43646;SDS011;56152;49.996;18.980;2022-10-16T15:08:06;7.20;;;6.30;;
43646;SDS011;56152;49.996;18.980;2022-10-16T15:13:09;7.43;;;6.13;;
43646;SDS011;56152;49.996;18.980;2022-10-16T15:18:14;11.48;;;8.30;;
43646;SDS011;56152;49.996;18.980;2022-10-16T15:23:22;8.75;;;6.13;;
43646;SDS011;56152;49.996;18.980;2022-10-16T15:28:24;6.07;;;5.00;;
43646;SDS011;56152;49.996;18.980;2022-10-16T15:33:27;6.40;;;5.50;;
43646;SDS011;56152;49.996;18.980;2022-10-16T15:38:34;12.10;;;6.95;;
43646;SDS011;56152;49.996;18.980;2022-10-16T15:43:36;9.18;;;6.32;;
43646;SDS011;56152;49.996;18.980;2022-10-16T15:48:38;9.18;;;5.68;;
43646;SDS011;56152;49.996;18.980;2022-10-16T15:53:43;9.45;;;6.68;;
43646;SDS011;56152;49.996;18.980;2022-10-16T15:58:47;13.38;;;8.02;;
43646;SDS011;56152;49.996;18.980;2022-10-16T16:04:01;11.43;;;8.82;;
43646;SDS011;56152;49.996;18.980;2022-10-16T16:09:06;9.73;;;8.15;;
43646;SDS011;56152;49.996;18.980;2022-10-16T16:14:08;12.30;;;8.70;;
43646;SDS011;56152;49.996;18.980;2022-10-16T16:19:13;12.07;;;8.25;;
43646;SDS011;56152;49.996;18.980;2022-10-16T16:24:22;9.73;;;7.22;;
43646;SDS011;56152;49.996;18.980;2022-10-16T16:29:24;11.63;;;7.60;;
43646;SDS011;56152;49.996;18.980;2022-10-16T16:34:26;13.05;;;9.65;;
43646;SDS011;56152;49.996;18.980;2022-10-16T16:39:31;16.60;;;11.73;;
43646;SDS011;56152;49.996;18.980;2022-10-16T16:44:34;18.42;;;12.80;;
43646;SDS011;56152;49.996;18.980;2022-10-16T16:49:36;39.75;;;26.85;;
43646;SDS011;56152;49.996;18.980;2022-10-16T16:54:42;104.32;;;59.00;;
43646;SDS011;56152;49.996;18.980;2022-10-16T16:59:51;69.05;;;40.70;;
43646;SDS011;56152;49.996;18.980;2022-10-16T17:04:53;78.65;;;45.08;;
43646;SDS011;56152;49.996;18.980;2022-10-16T17:09:58;64.80;;;42.35;;
43646;SDS011;56152;49.996;18.980;2022-10-16T17:15:01;67.25;;;39.92;;
43646;SDS011;56152;49.996;18.980;2022-10-16T17:20:05;63.75;;;41.00;;
43646;SDS011;56152;49.996;18.980;2022-10-16T17:25:11;57.80;;;35.08;;
43646;SDS011;56152;49.996;18.980;2022-10-16T17:30:13;46.45;;;30.05;;
43646;SDS011;56152;49.996;18.980;2022-10-16T17:35:18;45.67;;;29.52;;
43646;SDS011;56152;49.996;18.980;2022-10-16T17:40:22;67.63;;;41.05;;
43646;SDS011;56152;49.996;18.980;2022-10-16T17:45:26;54.25;;;34.42;;
43646;SDS011;56152;49.996;18.980;2022-10-16T17:50:28;53.85;;;31.70;;
43646;SDS011;56152;49.996;18.980;2022-10-16T17:55:37;46.67;;;27.40;;
43646;SDS011;56152;49.996;18.980;2022-10-16T18:00:42;42.03;;;27.80;;
43646;SDS011;56152;49.996;18.980;2022-10-16T18:05:45;38.60;;;25.17;;
43646;SDS011;56152;49.996;18.980;2022-10-16T18:10:49;43.25;;;27.33;;
43646;SDS011;56152;49.996;18.980;2022-10-16T18:15:58;37.72;;;24.35;;
43646;SDS011;56152;49.996;18.980;2022-10-16T18:21:02;37.28;;;23.48;;
43646;SDS011;56152;49.996;18.980;2022-10-16T18:26:08;35.13;;;24.17;;
43646;SDS011;56152;49.996;18.980;2022-10-16T18:31:12;35.95;;;23.88;;
43646;SDS011;56152;49.996;18.980;2022-10-16T18:36:16;49.58;;;30.73;;
43646;SDS011;56152;49.996;18.980;2022-10-16T18:41:21;35.83;;;23.55;;
43646;SDS011;56152;49.996;18.980;2022-10-16T18:46:23;36.63;;;24.42;;
43646;SDS011;56152;49.996;18.980;2022-10-16T18:51:26;31.40;;;21.42;;
43646;SDS011;56152;49.996;18.980;2022-10-16T18:56:32;30.85;;;21.52;;
43646;SDS011;56152;49.996;18.980;2022-10-16T19:01:37;36.97;;;25.48;;
43646;SDS011;56152;49.996;18.980;2022-10-16T19:06:43;59.17;;;37.40;;
43646;SDS011;56152;49.996;18.980;2022-10-16T19:11:47;66.97;;;35.60;;
43646;SDS011;56152;49.996;18.980;2022-10-16T19:16:50;57.92;;;31.80;;
43646;SDS011;56152;49.996;18.980;2022-10-16T19:21:52;52.78;;;31.25;;
43646;SDS011;56152;49.996;18.980;2022-10-16T19:27:12;59.83;;;34.80;;
43646;SDS011;56152;49.996;18.980;2022-10-16T19:32:13;61.65;;;31.63;;
43646;SDS011;56152;49.996;18.980;2022-10-16T19:37:18;46.63;;;27.55;;
43646;SDS011;56152;49.996;18.980;2022-10-16T19:42:26;45.75;;;25.52;;
43646;SDS011;56152;49.996;18.980;2022-10-16T19:47:28;49.10;;;28.52;;
43646;SDS011;56152;49.996;18.980;2022-10-16T19:52:31;39.85;;;22.00;;
43646;SDS011;56152;49.996;18.980;2022-10-16T19:57:35;42.60;;;25.45;;
43646;SDS011;56152;49.996;18.980;2022-10-16T20:02:38;44.85;;;25.98;;
43646;SDS011;56152;49.996;18.980;2022-10-16T20:07:39;56.40;;;35.28;;
43646;SDS011;56152;49.996;18.980;2022-10-16T20:12:45;60.95;;;37.35;;
43646;SDS011;56152;49.996;18.980;2022-10-16T20:17:48;49.55;;;32.35;;
43646;SDS011;56152;49.996;18.980;2022-10-16T20:22:50;56.95;;;35.35;;
43646;SDS011;56152;49.996;18.980;2022-10-16T20:27:53;94.45;;;51.20;;
43646;SDS011;56152;49.996;18.980;2022-10-16T20:32:57;68.88;;;38.58;;
43646;SDS011;56152;49.996;18.980;2022-10-16T20:38:00;66.07;;;36.28;;
43646;SDS011;56152;49.996;18.980;2022-10-16T20:43:04;57.03;;;34.05;;
43646;SDS011;56152;49.996;18.980;2022-10-16T20:48:09;59.15;;;33.80;;
43646;SDS011;56152;49.996;18.980;2022-10-16T20:53:12;119.00;;;58.28;;
43646;SDS011;56152;49.996;18.980;2022-10-16T20:58:17;91.80;;;44.78;;
43646;SDS011;56152;49.996;18.980;2022-10-16T21:03:19;92.00;;;45.92;;
43646;SDS011;56152;49.996;18.980;2022-10-16T21:08:21;79.65;;;43.65;;
43646;SDS011;56152;49.996;18.980;2022-10-16T21:13:25;69.82;;;37.03;;
43646;SDS011;56152;49.996;18.980;2022-10-16T21:18:30;63.53;;;35.40;;
43646;SDS011;56152;49.996;18.980;2022-10-16T21:23:32;95.45;;;42.20;;
43646;SDS011;56152;49.996;18.980;2022-10-16T21:28:37;69.78;;;34.47;;
43646;SDS011;56152;49.996;18.980;2022-10-16T21:33:39;73.13;;;38.60;;
43646;SDS011;56152;49.996;18.980;2022-10-16T21:38:41;68.18;;;35.00;;
43646;SDS011;56152;49.996;18.980;2022-10-16T21:43:45;101.95;;;44.40;;
43646;SDS011;56152;49.996;18.980;2022-10-16T21:48:47;86.45;;;38.83;;
43646;SDS011;56152;49.996;18.980;2022-10-16T21:53:59;69.60;;;36.75;;
43646;SDS011;56152;49.996;18.980;2022-10-16T21:59:03;59.75;;;29.83;;
43646;SDS011;56152;49.996;18.980;2022-10-16T22:04:09;54.85;;;31.58;;
43646;SDS011;56152;49.996;18.980;2022-10-16T22:09:16;50.10;;;29.50;;
43646;SDS011;56152;49.996;18.980;2022-10-16T22:14:19;50.15;;;30.13;;
43646;SDS011;56152;49.996;18.980;2022-10-16T22:19:22;60.72;;;34.10;;
43646;SDS011;56152;49.996;18.980;2022-10-16T22:24:24;68.07;;;37.72;;
43646;SDS011;56152;49.996;18.980;2022-10-16T22:29:32;75.13;;;39.50;;
43646;SDS011;56152;49.996;18.980;2022-10-16T22:34:33;87.03;;;44.22;;
43646;SDS011;56152;49.996;18.980;2022-10-16T22:39:36;85.47;;;43.50;;
43646;SDS011;56152;49.996;18.980;2022-10-16T22:44:43;84.20;;;38.53;;
43646;SDS011;56152;49.996;18.980;2022-10-16T22:49:54;94.65;;;46.88;;
43646;SDS011;56152;49.996;18.980;2022-10-16T22:54:56;109.75;;;42.67;;
43646;SDS011;56152;49.996;18.980;2022-10-16T23:00:02;80.07;;;38.88;;
43646;SDS011;56152;49.996;18.980;2022-10-16T23:05:05;61.97;;;35.10;;
43646;SDS011;56152;49.996;18.980;2022-10-16T23:10:07;81.13;;;40.80;;
43646;SDS011;56152;49.996;18.980;2022-10-16T23:15:11;61.75;;;36.33;;
43646;SDS011;56152;49.996;18.980;2022-10-16T23:20:13;57.08;;;36.15;;
43646;SDS011;56152;49.996;18.980;2022-10-16T23:25:22;54.15;;;31.20;;
43646;SDS011;56152;49.996;18.980;2022-10-16T23:30:25;56.05;;;30.60;;
43646;SDS011;56152;49.996;18.980;2022-10-16T23:35:32;48.13;;;29.15;;
43646;SDS011;56152;49.996;18.980;2022-10-16T23:40:34;58.03;;;36.60;;
43646;SDS011;56152;49.996;18.980;2022-10-16T23:45:40;115.78;;;62.05;;
43646;SDS011;56152;49.996;18.980;2022-10-16T23:50:42;63.55;;;40.97;;
43646;SDS011;56152;49.996;18.980;2022-10-16T23:55:44;60.70;;;36.50;;
